Strona główna
METAR-TAF:

METAR-TAF

Lotnisko :

Port lotniczy Dźinnaha w Karaczi

Karaczi, Pakistan

Szerokość geograficzna: 24-54N, Długość geograficzna: 067-08E, wysokość: 21 m

Aktualna obserwacja pogody

Raport powstał 48 minut temu, godzina 01:55 UTC
Cisza
Temperatura 23°C
Wilgotność 89%
Ciśnienie 1011 hPa
Widzialność: 2000 m
zamglenie

METAR: OPKC 180155Z 00000KT 2000 BR NSC 23/21 Q1011 NOSIG

czas: 07:43 (02:43 UTC)

Prognoza

Raport powstał 2 godziny i 13 minut temu, godzina 00:30 UTC
Prognoza ważna od 18 godzina 03 UTC do 18 godzina 12 UTC
Wiatr 5 kt od zachodnio-południowy zachód w porywach dochodzący do 15 kt
Widzialność: 6000 m
Przejściowo
od 18 godzina 03 UTC do 18 godzina 07 UTC
Wiatr 3 kt z kierunków zmiennych
Widzialność: 3000 m
Rozproszone chmury na wysokości 2000 ft
dym

TAF: OPKC 180030Z 1803/1812 25005G15KT 6000 NSC TEMPO 1803/1807 VRB03KT 3000 FU SCT020

Obserwacja i prognoza pogody dla ponad 4000 lotnisk (raport METAR i TAF).

Dostępne stacje oznaczono żółtymi i czerwonymi punktami na mapie.

Najedź kursorem aby zobaczyć nazwę stacji.

Kliknij aby zobaczyć obserwacje i prognozy pogody.

Aby zmienić mapę: kliknij na zielony przycisk z czarnym krzyżykiem, aby powiększyć; na zielony przycisk z myślnikiem, aby pomniejszyć; na zielone strzałki, aby przejść do map sąsiednich.


METAR-TAF: